Time;durP1;ratioP1;P1;durP2;ratioP2;P2;SDS_P1;SDS_P2;PMS_P1;PMS_P2;Temp;Humidity;BMP_temperature;BMP_pressure;BME280_temperature;BME280_humidity;BME280_pressure;Samples;Min_cycle;Max_cycle;Signal;HPM_P1;HPM_P2
2022/07/24 00:00:34;;;;;;;15.63;14.53;;;22.10;99.90;;;;;;5012747;28;20171;-67
2022/07/24 00:03:00;;;;;;;15.10;13.90;;;22.10;99.90;;;;;;4995204;28;20425;-67
2022/07/24 00:05:25;;;;;;;16.40;15.10;;;22.00;99.90;;;;;;5012730;28;20258;-66
2022/07/24 00:07:51;;;;;;;18.13;16.63;;;21.90;99.90;;;;;;5012820;28;20178;-67
2022/07/24 00:10:16;;;;;;;16.67;15.47;;;21.80;99.90;;;;;;5011925;28;20664;-67
2022/07/24 00:12:42;;;;;;;15.73;14.30;;;21.80;99.90;;;;;;5012577;28;20205;-67
2022/07/24 00:15:08;;;;;;;16.27;14.97;;;21.70;99.90;;;;;;5012644;28;20175;-66
2022/07/24 00:17:33;;;;;;;17.17;15.97;;;21.70;99.90;;;;;;5012473;28;20175;-67
2022/07/24 00:19:59;;;;;;;14.90;13.80;;;21.80;99.90;;;;;;4994055;28;20458;-67
2022/07/24 00:22:24;;;;;;;16.73;15.33;;;21.80;99.90;;;;;;5012668;28;20171;-66
2022/07/24 00:24:50;;;;;;;17.10;15.47;;;21.80;99.90;;;;;;5012376;28;20171;-66
2022/07/24 00:27:16;;;;;;;16.77;15.27;;;21.90;99.90;;;;;;5012505;28;20194;-66
2022/07/24 00:29:42;;;;;;;14.30;13.20;;;21.80;99.90;;;;;;5011533;28;20687;-67
2022/07/24 00:32:08;;;;;;;15.17;13.97;;;21.80;99.90;;;;;;5012219;28;20460;-66
2022/07/24 00:34:33;;;;;;;15.20;14.00;;;21.70;99.90;;;;;;5012333;28;20211;-67
2022/07/24 00:36:59;;;;;;;15.70;14.50;;;21.70;99.90;;;;;;5012296;28;20229;-67
2022/07/24 00:39:24;;;;;;;15.03;13.63;;;21.60;99.90;;;;;;5011556;28;20205;-66
2022/07/24 00:41:52;;;;;;;15.80;14.47;;;21.60;99.90;;;;;;5012360;28;20166;-66
2022/07/24 00:44:19;;;;;;;15.83;14.23;;;21.60;99.90;;;;;;5012272;28;20174;-67
2022/07/24 00:46:45;;;;;;;15.87;14.67;;;21.60;99.90;;;;;;5012493;28;20919;-67
2022/07/24 00:49:16;;;;;;;16.20;15.00;;;21.60;99.90;;;;;;5011416;28;20440;-66
2022/07/24 00:51:44;;;;;;;15.53;14.33;;;21.60;99.90;;;;;;5012316;28;20444;-67
2022/07/24 00:54:11;;;;;;;15.20;14.00;;;21.70;99.90;;;;;;5012147;28;20445;-66
2022/07/24 00:56:37;;;;;;;15.80;14.60;;;21.60;99.90;;;;;;5012069;28;20420;-66
2022/07/24 00:59:03;;;;;;;14.93;13.73;;;21.50;99.90;;;;;;5011352;28;20439;-67
2022/07/24 01:01:30;;;;;;;16.90;15.60;;;21.50;99.90;;;;;;5012014;28;20285;-67
2022/07/24 01:03:57;;;;;;;16.33;14.93;;;21.50;99.90;;;;;;5012037;28;20424;-67
2022/07/24 01:06:23;;;;;;;14.60;13.40;;;21.40;99.90;;;;;;5012032;28;20989;-66
2022/07/24 01:08:48;;;;;;;14.97;13.73;;;21.40;99.90;;;;;;5014971;28;20445;-66
2022/07/24 01:11:14;;;;;;;15.57;14.27;;;21.30;99.90;;;;;;5016006;28;20422;-66
2022/07/24 01:13:40;;;;;;;16.73;15.30;;;21.40;99.90;;;;;;5015854;28;20241;-67
2022/07/24 01:16:07;;;;;;;16.67;15.43;;;21.40;99.90;;;;;;5015867;28;20640;-66
2022/07/24 01:18:33;;;;;;;16.30;14.90;;;21.40;99.90;;;;;;5014992;28;20808;-67
2022/07/24 01:20:58;;;;;;;15.63;14.47;;;21.40;99.90;;;;;;5015780;28;20497;-67
2022/07/24 01:23:24;;;;;;;14.30;13.30;;;21.30;99.90;;;;;;5015763;28;20834;-67
2022/07/24 01:25:50;;;;;;;15.63;14.33;;;21.30;99.90;;;;;;5015689;28;20179;-66
2022/07/24 01:28:16;;;;;;;14.87;13.70;;;21.20;99.90;;;;;;5014801;28;20640;-66
2022/07/24 01:30:42;;;;;;;14.23;13.13;;;21.20;99.90;;;;;;5015648;28;20449;-66
2022/07/24 01:33:08;;;;;;;13.23;12.23;;;21.20;99.90;;;;;;5015466;28;20457;-66
2022/07/24 01:35:33;;;;;;;14.80;13.60;;;21.20;99.90;;;;;;5015500;28;20420;-67
2022/07/24 01:37:59;;;;;;;14.90;13.70;;;21.20;99.90;;;;;;5015385;28;20224;-66
2022/07/24 01:40:24;;;;;;;15.20;13.80;;;21.10;99.90;;;;;;5014652;28;20171;-67
2022/07/24 01:42:50;;;;;;;15.20;13.87;;;21.00;99.90;;;;;;5015417;28;20202;-67
2022/07/24 01:45:16;;;;;;;16.17;14.77;;;20.90;99.90;;;;;;5015294;28;20183;-66
2022/07/24 01:47:43;;;;;;;14.40;13.17;;;20.90;99.90;;;;;;5015183;28;20175;-66
2022/07/24 01:50:10;;;;;;;13.77;12.67;;;21.10;99.90;;;;;;5014499;28;20414;-66
2022/07/24 01:52:36;;;;;;;14.30;13.10;;;21.10;99.90;;;;;;5015114;28;20586;-66
2022/07/24 01:55:02;;;;;;;13.27;12.17;;;21.20;99.90;;;;;;5015239;28;20424;-66
2022/07/24 01:57:27;;;;;;;12.43;11.40;;;21.20;99.90;;;;;;5015044;28;20785;-67
2022/07/24 01:59:53;;;;;;;14.20;13.00;;;21.20;99.90;;;;;;5014257;28;20692;-66
2022/07/24 02:02:19;;;;;;;14.87;11.87;;;21.10;99.90;;;;;;5014987;28;20202;-66
2022/07/24 02:04:44;;;;;;;12.80;11.67;;;21.10;99.90;;;;;;5014966;28;20185;-67
2022/07/24 02:07:09;;;;;;;13.97;12.90;;;21.10;99.90;;;;;;5015161;28;20179;-67
2022/07/24 02:09:35;;;;;;;13.73;12.57;;;21.10;99.90;;;;;;5014086;28;20190;-66
2022/07/24 02:12:00;;;;;;;13.33;12.33;;;21.00;99.90;;;;;;5014755;28;20579;-67
2022/07/24 02:14:26;;;;;;;14.60;13.30;;;21.00;99.90;;;;;;5014831;28;20186;-66
2022/07/24 02:16:51;;;;;;;13.50;12.30;;;21.00;99.90;;;;;;5014792;28;20181;-67
2022/07/24 02:19:17;;;;;;;13.83;12.53;;;21.00;99.90;;;;;;5013268;28;20563;-66
2022/07/24 02:21:43;;;;;;;14.03;12.83;;;20.90;99.90;;;;;;5014773;28;20163;-66
2022/07/24 02:24:08;;;;;;;12.50;11.60;;;20.90;99.90;;;;;;5014755;28;20536;-66
2022/07/24 02:26:34;;;;;;;13.80;12.80;;;20.80;99.90;;;;;;5014575;28;20171;-66
2022/07/24 02:28:59;;;;;;;13.10;11.97;;;20.80;99.90;;;;;;5013600;28;20215;-66
2022/07/24 02:31:25;;;;;;;13.07;12.10;;;20.70;99.90;;;;;;5014489;28;20171;-66
2022/07/24 02:33:50;;;;;;;12.70;11.60;;;20.60;99.90;;;;;;5014518;28;20202;-66
2022/07/24 02:36:16;;;;;;;13.93;12.80;;;20.50;99.90;;;;;;5014365;28;20171;-66
2022/07/24 02:38:42;;;;;;;13.13;12.17;;;20.50;99.90;;;;;;5013531;28;20187;-66
2022/07/24 02:41:07;;;;;;;14.50;13.40;;;20.50;99.90;;;;;;5014327;28;20310;-67
2022/07/24 02:43:33;;;;;;;13.80;12.70;;;20.60;99.90;;;;;;5014196;28;20544;-66
2022/07/24 02:45:59;;;;;;;13.60;12.40;;;20.50;99.90;;;;;;5014165;28;20206;-66
2022/07/24 02:48:24;;;;;;;14.30;12.63;;;20.50;99.90;;;;;;5013547;28;20684;-66
2022/07/24 02:50:50;;;;;;;14.00;12.97;;;20.50;99.90;;;;;;5014148;28;20719;-67
2022/07/24 02:53:16;;;;;;;15.57;14.27;;;20.50;99.90;;;;;;5014028;28;20252;-67
2022/07/24 02:55:42;;;;;;;13.43;12.47;;;20.50;99.90;;;;;;5013972;28;21056;-66
2022/07/24 02:58:07;;;;;;;18.47;13.43;;;20.40;99.90;;;;;;5013716;28;20191;-66
2022/07/24 03:00:33;;;;;;;14.90;13.77;;;20.20;99.90;;;;;;5013355;28;20306;-67
2022/07/24 03:02:58;;;;;;;14.30;13.10;;;20.20;99.90;;;;;;5013916;28;20210;-66
2022/07/24 03:05:24;;;;;;;16.13;14.73;;;20.10;99.90;;;;;;5013968;28;20178;-66
2022/07/24 03:07:49;;;;;;;15.37;14.20;;;20.10;99.90;;;;;;5013758;28;20186;-66
2022/07/24 03:10:15;;;;;;;17.93;16.43;;;20.10;99.90;;;;;;5013099;28;20205;-67
2022/07/24 03:12:41;;;;;;;17.20;15.80;;;20.20;99.90;;;;;;5013621;28;20195;-66
2022/07/24 03:15:09;;;;;;;17.63;15.83;;;20.20;99.90;;;;;;5013614;28;20246;-66
2022/07/24 03:17:34;;;;;;;15.80;14.60;;;20.20;99.90;;;;;;5013516;28;20417;-66
2022/07/24 03:20:00;;;;;;;15.33;14.17;;;20.20;99.90;;;;;;5012802;28;20425;-66
2022/07/24 03:22:25;;;;;;;17.00;15.27;;;20.10;99.90;;;;;;5013680;28;20175;-67
2022/07/24 03:24:51;;;;;;;16.53;15.00;;;20.10;99.90;;;;;;5013563;28;20199;-67
2022/07/24 03:27:17;;;;;;;16.50;15.20;;;20.20;99.90;;;;;;5013380;28;20183;-66
2022/07/24 03:29:42;;;;;;;15.40;14.20;;;20.10;99.90;;;;;;5013007;28;20637;-66
2022/07/24 03:32:07;;;;;;;15.97;14.40;;;20.10;99.90;;;;;;5012496;28;20679;-67
2022/07/24 03:34:33;;;;;;;17.50;15.10;;;20.00;99.90;;;;;;5013477;28;20171;-66
2022/07/24 03:36:58;;;;;;;17.00;15.50;;;20.00;99.90;;;;;;5013232;28;20178;-66
2022/07/24 03:39:24;;;;;;;16.30;14.63;;;20.00;99.90;;;;;;5012434;28;20530;-67
2022/07/24 03:41:50;;;;;;;16.03;14.80;;;19.90;99.90;;;;;;5013157;28;20273;-66
2022/07/24 03:44:15;;;;;;;15.53;14.23;;;19.80;99.90;;;;;;5013124;28;20177;-66
2022/07/24 03:46:41;;;;;;;16.33;15.03;;;19.70;99.90;;;;;;5013126;28;20174;-67
2022/07/24 03:49:07;;;;;;;14.50;13.40;;;19.70;99.90;;;;;;5012244;28;20329;-66
2022/07/24 03:51:34;;;;;;;17.07;15.67;;;19.70;99.90;;;;;;5013047;28;20542;-66
2022/07/24 03:54:00;;;;;;;16.43;15.13;;;19.70;99.90;;;;;;5012937;28;20202;-67
2022/07/24 03:56:26;;;;;;;15.27;13.97;;;19.80;99.90;;;;;;5012867;28;20493;-66
2022/07/24 03:58:52;;;;;;;16.13;14.83;;;19.70;99.90;;;;;;5012049;28;20584;-66
2022/07/24 04:01:17;;;;;;;15.47;14.17;;;19.70;99.90;;;;;;5012978;28;20660;-67
2022/07/24 04:03:43;;;;;;;14.93;13.83;;;19.70;99.90;;;;;;5012802;28;20171;-66
2022/07/24 04:06:08;;;;;;;15.20;13.90;;;19.60;99.90;;;;;;5012774;28;20182;-67
2022/07/24 04:08:34;;;;;;;15.47;14.17;;;19.70;99.90;;;;;;5011982;28;20249;-66
2022/07/24 04:10:59;;;;;;;14.10;12.90;;;19.70;99.90;;;;;;5012646;28;20217;-67
2022/07/24 04:13:27;;;;;;;14.60;13.23;;;19.70;99.90;;;;;;5012582;28;20202;-67
2022/07/24 04:15:53;;;;;;;15.13;13.73;;;19.60;99.90;;;;;;5013157;28;20202;-66
2022/07/24 04:18:18;;;;;;;15.40;14.00;;;19.60;99.90;;;;;;5011809;28;20950;-66
2022/07/24 04:20:44;;;;;;;15.23;13.70;;;19.70;99.90;;;;;;5012526;28;20508;-67
2022/07/24 04:23:09;;;;;;;15.93;14.50;;;19.70;99.90;;;;;;5012582;28;20245;-66
2022/07/24 04:25:35;;;;;;;14.97;13.70;;;19.80;99.90;;;;;;5012450;28;20258;-66
2022/07/24 04:28:01;;;;;;;15.57;14.20;;;19.90;99.90;;;;;;5012274;28;20195;-67
2022/07/24 04:30:27;;;;;;;15.60;14.50;;;19.90;99.90;;;;;;5011611;28;20540;-67
2022/07/24 04:32:53;;;;;;;15.63;14.13;;;19.90;99.90;;;;;;5012130;28;20510;-67
2022/07/24 04:35:18;;;;;;;15.70;14.40;;;20.00;99.90;;;;;;5012126;28;20445;-66
2022/07/24 04:37:45;;;;;;;14.67;13.33;;;20.20;99.90;;;;;;5011998;28;20178;-67
2022/07/24 04:40:12;;;;;;;14.57;13.27;;;20.30;99.90;;;;;;5011309;28;20205;-66
2022/07/24 04:42:38;;;;;;;15.90;14.50;;;20.50;99.90;;;;;;5011620;28;20926;-66
2022/07/24 04:45:05;;;;;;;16.00;14.70;;;20.50;99.90;;;;;;5012181;28;20494;-67
2022/07/24 04:47:30;;;;;;;14.93;13.73;;;20.50;99.90;;;;;;5011983;28;20417;-66
2022/07/24 04:49:56;;;;;;;16.07;14.80;;;20.50;99.90;;;;;;5011213;28;20441;-68
2022/07/24 04:52:22;;;;;;;15.87;14.47;;;21.30;99.90;;;;;;5011950;28;20281;-66
2022/07/24 04:54:48;;;;;;;14.40;13.20;;;20.70;99.90;;;;;;5011940;28;20436;-66
2022/07/24 04:57:13;;;;;;;14.73;13.40;;;20.80;99.90;;;;;;5011792;28;20198;-67
2022/07/24 04:59:39;;;;;;;13.97;12.73;;;20.90;99.90;;;;;;5011128;28;20213;-67
2022/07/24 05:02:04;;;;;;;14.40;13.23;;;21.10;99.90;;;;;;5011892;28;20175;-66
2022/07/24 05:04:30;;;;;;;15.70;14.40;;;21.30;99.90;;;;;;5011958;28;20181;-67
2022/07/24 05:06:56;;;;;;;16.23;15.03;;;21.40;99.90;;;;;;5011901;28;20553;-67
2022/07/24 05:09:21;;;;;;;17.00;15.63;;;21.50;99.90;;;;;;5010975;28;20884;-66
2022/07/24 05:11:47;;;;;;;14.73;13.60;;;21.60;99.90;;;;;;5011701;28;20566;-67
2022/07/24 05:14:12;;;;;;;15.20;13.90;;;21.70;99.90;;;;;;5011772;28;20175;-66
2022/07/24 05:16:38;;;;;;;14.83;13.67;;;21.80;99.90;;;;;;5011765;28;20171;-67
2022/07/24 05:19:03;;;;;;;15.63;14.43;;;22.00;99.90;;;;;;5010933;28;20225;-67
2022/07/24 05:21:29;;;;;;;17.87;16.37;;;22.10;99.90;;;;;;5011700;28;20569;-67
2022/07/24 05:23:55;;;;;;;17.00;15.53;;;22.30;99.90;;;;;;5011592;28;20649;-66
2022/07/24 05:26:20;;;;;;;15.40;14.10;;;22.30;99.90;;;;;;5011632;28;20294;-66
2022/07/24 05:28:46;;;;;;;15.07;13.83;;;22.40;99.90;;;;;;5010672;28;20210;-67
2022/07/24 05:31:11;;;;;;;14.33;13.23;;;22.50;99.90;;;;;;5011612;28;20178;-66
2022/07/24 05:33:37;;;;;;;14.90;13.70;;;22.70;99.90;;;;;;5011509;28;20294;-67
2022/07/24 05:36:03;;;;;;;16.13;14.83;;;22.80;99.90;;;;;;5011546;28;20175;-67
2022/07/24 05:38:29;;;;;;;16.73;15.47;;;22.90;99.90;;;;;;5010630;28;20488;-66
2022/07/24 05:40:55;;;;;;;16.70;14.93;;;22.90;99.90;;;;;;5011450;28;20754;-67
2022/07/24 05:43:21;;;;;;;15.53;14.43;;;22.70;99.90;;;;;;5011664;28;20177;-66
2022/07/24 05:45:46;;;;;;;15.73;14.53;;;22.80;99.90;;;;;;5011850;28;20209;-67
2022/07/24 05:48:12;;;;;;;16.70;15.17;;;22.80;99.90;;;;;;5011099;28;20227;-66
2022/07/24 05:50:37;;;;;;;15.70;14.50;;;22.90;99.90;;;;;;5011651;28;20183;-68
2022/07/24 05:53:03;;;;;;;15.83;14.53;;;23.30;99.90;;;;;;5011512;28;20723;-66
2022/07/24 05:55:28;;;;;;;16.40;15.00;;;23.60;99.90;;;;;;5014208;28;20182;-66
2022/07/24 05:57:55;;;;;;;16.90;15.30;;;23.80;99.90;;;;;;5015022;28;20175;-67
2022/07/24 06:00:21;;;;;;;14.80;13.70;;;23.90;99.90;;;;;;5014414;28;20279;-67
2022/07/24 06:02:47;;;;;;;15.63;14.43;;;24.10;99.90;;;;;;5014922;28;20497;-67
2022/07/24 06:05:14;;;;;;;14.50;13.20;;;24.20;99.90;;;;;;5014750;28;20271;-66
2022/07/24 06:07:39;;;;;;;16.33;14.63;;;24.20;99.90;;;;;;5014639;28;20174;-67
2022/07/24 06:10:05;;;;;;;14.10;12.83;;;24.30;99.90;;;;;;5013891;28;20976;-67
2022/07/24 06:12:31;;;;;;;14.00;13.00;;;24.30;99.90;;;;;;5014537;28;20215;-67
2022/07/24 06:14:56;;;;;;;15.63;14.53;;;24.50;99.90;;;;;;4996995;28;20426;-66
2022/07/24 06:17:22;;;;;;;13.07;11.97;;;24.40;99.90;;;;;;5014465;28;20167;-66
2022/07/24 06:19:47;;;;;;;13.63;12.33;;;24.50;99.90;;;;;;5013666;28;20245;-67
2022/07/24 06:22:13;;;;;;;15.70;14.30;;;24.60;99.90;;;;;;5014448;28;20202;-67
2022/07/24 06:24:38;;;;;;;13.47;12.47;;;24.70;99.90;;;;;;5015117;28;20182;-67
2022/07/24 06:27:04;;;;;;;14.53;13.37;;;24.80;99.90;;;;;;5014335;28;20175;-67
2022/07/24 06:29:30;;;;;;;15.10;13.80;;;24.90;99.90;;;;;;5013460;28;20625;-67
2022/07/24 06:31:56;;;;;;;13.70;12.50;;;25.30;99.90;;;;;;5014258;28;20768;-67
2022/07/24 06:34:23;;;;;;;13.53;12.40;;;25.40;99.90;;;;;;5014194;28;20414;-67
2022/07/24 06:36:52;;;;;;;13.90;12.90;;;25.60;99.90;;;;;;5014124;28;20579;-67
2022/07/24 06:39:18;;;;;;;14.23;13.13;;;25.80;99.90;;;;;;5013367;28;20425;-68
2022/07/24 06:41:44;;;;;;;12.50;11.60;;;26.10;99.90;;;;;;4996451;28;20472;-67
2022/07/24 06:44:09;;;;;;;12.63;11.70;;;26.40;99.90;;;;;;5014066;28;20167;-67
2022/07/24 06:46:35;;;;;;;12.40;11.30;;;26.60;99.90;;;;;;5014026;28;20750;-67
2022/07/24 06:49:00;;;;;;;12.60;11.60;;;26.70;99.90;;;;;;5013189;28;20195;-67
2022/07/24 06:51:26;;;;;;;12.77;11.67;;;26.80;99.90;;;;;;5012926;28;20582;-67
2022/07/24 06:53:51;;;;;;;12.10;11.17;;;26.90;99.90;;;;;;5013730;28;20810;-67
2022/07/24 06:56:17;;;;;;;15.77;14.43;;;27.00;99.90;;;;;;5013673;28;20183;-67
2022/07/24 06:58:42;;;;;;;11.60;10.70;;;27.20;99.90;;;;;;5013036;28;20218;-67
2022/07/24 07:01:08;;;;;;;11.63;10.67;;;27.40;99.90;;;;;;5013682;28;20170;-67
2022/07/24 07:03:33;;;;;;;11.67;10.87;;;27.40;99.90;;;;;;5013647;28;20316;-67
2022/07/24 07:05:59;;;;;;;10.83;9.97;;;27.70;99.90;;;;;;5013466;28;20178;-67
2022/07/24 07:08:24;;;;;;;12.30;11.40;;;27.60;99.70;;;;;;5012778;28;20218;-67
2022/07/24 07:10:50;;;;;;;11.53;10.47;;;27.80;99.60;;;;;;5013364;28;20185;-67
2022/07/24 07:13:15;;;;;;;11.67;10.70;;;27.90;97.50;;;;;;5013531;28;20546;-67
2022/07/24 07:15:41;;;;;;;10.60;9.50;;;27.90;97.50;;;;;;5013697;28;20182;-67
2022/07/24 07:18:06;;;;;;;12.30;10.83;;;27.80;97.70;;;;;;5013488;28;20318;-67
2022/07/24 07:20:32;;;;;;;11.90;10.67;;;28.10;98.00;;;;;;5013085;28;20183;-67
2022/07/24 07:22:58;;;;;;;12.00;11.00;;;28.40;97.30;;;;;;5013534;28;20652;-67
2022/07/24 07:25:23;;;;;;;11.90;11.00;;;28.60;96.50;;;;;;5013408;28;20183;-67
2022/07/24 07:27:49;;;;;;;10.50;9.70;;;28.80;96.20;;;;;;5013334;28;20179;-67
2022/07/24 07:30:14;;;;;;;12.00;9.70;;;29.00;94.90;;;;;;5012711;28;20649;-67
2022/07/24 07:32:40;;;;;;;10.30;9.50;;;29.20;94.20;;;;;;5013157;28;20202;-68
2022/07/24 07:35:06;;;;;;;11.40;10.50;;;29.20;93.50;;;;;;4995504;28;20202;-67
2022/07/24 07:37:32;;;;;;;11.07;10.27;;;29.20;93.60;;;;;;5013062;28;20175;-67
2022/07/24 07:39:58;;;;;;;10.13;9.43;;;29.40;93.50;;;;;;5012094;28;20817;-67
2022/07/24 07:42:24;;;;;;;10.23;9.40;;;29.60;92.30;;;;;;5012933;28;20245;-67
2022/07/24 07:44:49;;;;;;;11.00;10.20;;;29.70;91.40;;;;;;5012882;28;20267;-68
2022/07/24 07:47:15;;;;;;;10.63;9.80;;;29.80;91.50;;;;;;5012892;28;20178;-67
2022/07/24 07:49:41;;;;;;;11.30;10.40;;;29.60;92.10;;;;;;5012048;28;20203;-67
2022/07/24 07:52:06;;;;;;;10.37;9.57;;;29.70;92.30;;;;;;5011733;28;20418;-67
2022/07/24 07:54:32;;;;;;;11.63;10.73;;;29.90;91.80;;;;;;5012760;28;20628;-68
2022/07/24 07:56:57;;;;;;;10.37;9.67;;;30.20;91.30;;;;;;5012703;28;20186;-67
2022/07/24 07:59:23;;;;;;;11.00;9.83;;;30.40;90.60;;;;;;5011916;28;20620;-67
2022/07/24 08:01:49;;;;;;;11.57;10.40;;;30.00;90.40;;;;;;5012694;28;20232;-68
2022/07/24 08:04:14;;;;;;;12.30;11.37;;;29.70;90.40;;;;;;5012656;28;20240;-67
2022/07/24 08:06:40;;;;;;;10.50;9.67;;;29.70;90.40;;;;;;5012483;28;20254;-67
2022/07/24 08:09:06;;;;;;;11.23;10.43;;;29.80;90.10;;;;;;5011709;28;20199;-67
2022/07/24 08:11:32;;;;;;;10.67;9.70;;;30.00;89.40;;;;;;5012404;28;20174;-67
2022/07/24 08:13:58;;;;;;;10.60;9.67;;;30.60;86.90;;;;;;5012395;28;20470;-68
2022/07/24 08:16:23;;;;;;;11.20;10.23;;;31.00;85.80;;;;;;5012155;28;20656;-67
2022/07/24 08:18:49;;;;;;;11.70;10.90;;;31.20;84.30;;;;;;5011376;28;20668;-67
2022/07/24 08:21:15;;;;;;;13.13;12.13;;;31.00;83.60;;;;;;5012263;28;20216;-68
2022/07/24 08:23:41;;;;;;;11.67;10.70;;;30.90;83.60;;;;;;5012264;28;20587;-68
2022/07/24 08:26:06;;;;;;;10.77;10.07;;;30.70;84.80;;;;;;5012245;28;20548;-67
2022/07/24 08:28:32;;;;;;;11.00;10.10;;;30.70;84.60;;;;;;5011362;28;20214;-67
2022/07/24 08:30:57;;;;;;;10.70;9.70;;;30.80;85.00;;;;;;5012200;28;20171;-67
2022/07/24 08:33:23;;;;;;;11.30;10.40;;;31.00;84.20;;;;;;5012076;28;20560;-67
2022/07/24 08:35:49;;;;;;;11.27;10.27;;;31.10;81.90;;;;;;4994457;28;20167;-67
2022/07/24 08:38:14;;;;;;;11.80;10.10;;;31.00;81.80;;;;;;5011196;28;20205;-68
2022/07/24 08:40:40;;;;;;;11.27;10.47;;;31.60;81.60;;;;;;5012031;28;20175;-67
2022/07/24 08:43:07;;;;;;;11.57;10.57;;;31.50;81.00;;;;;;5012259;28;20174;-67
2022/07/24 08:45:41;;;;;;;11.40;10.20;;;31.90;80.80;;;;;;5012309;28;20207;-67
2022/07/24 08:48:08;;;;;;;10.20;9.47;;;32.10;81.00;;;;;;5012060;28;20434;-67
2022/07/24 08:50:36;;;;;;;11.80;10.90;;;32.70;79.30;;;;;;5011642;28;20902;-67
2022/07/24 08:53:03;;;;;;;10.83;10.10;;;32.50;76.50;;;;;;5012013;28;20515;-67
2022/07/24 08:55:29;;;;;;;10.63;9.90;;;32.50;76.00;;;;;;5012111;28;20418;-67
2022/07/24 08:57:58;;;;;;;10.53;9.80;;;32.70;75.40;;;;;;5012003;28;20821;-67
2022/07/24 09:00:26;;;;;;;10.77;9.97;;;33.20;74.60;;;;;;5011394;28;20488;-67
2022/07/24 09:02:51;;;;;;;10.57;9.87;;;33.40;73.20;;;;;;5011918;28;20501;-66
2022/07/24 09:05:17;;;;;;;10.83;9.97;;;33.30;71.70;;;;;;5011755;28;20513;-68
2022/07/24 09:07:43;;;;;;;10.63;9.93;;;33.60;70.70;;;;;;5011696;28;20163;-67
2022/07/24 09:10:16;;;;;;;11.33;10.43;;;34.20;69.20;;;;;;5011021;28;20448;-67
2022/07/24 09:12:45;;;;;;;10.23;9.43;;;34.70;67.50;;;;;;5011637;28;20240;-67
2022/07/24 09:15:16;;;;;;;11.50;10.67;;;34.70;65.50;;;;;;5011687;28;20413;-67
2022/07/24 09:17:52;;;;;;;10.43;9.77;;;34.60;65.50;;;;;;5011533;28;20448;-67
2022/07/24 09:20:19;;;;;;;10.17;9.47;;;34.00;66.10;;;;;;4993323;28;20421;-67
2022/07/24 09:22:45;;;;;;;11.10;10.30;;;34.00;65.90;;;;;;5011632;28;20430;-67
2022/07/24 09:25:13;;;;;;;11.67;10.87;;;34.10;64.30;;;;;;5011632;28;20826;-66
2022/07/24 09:27:50;;;;;;;11.93;11.07;;;33.30;65.20;;;;;;5011663;28;20424;-66
2022/07/24 09:30:31;;;;;;;11.00;10.30;;;32.60;67.10;;;;;;5038383;22;20496;-66
2022/07/24 09:33:11;;;;;;;11.10;10.30;;;32.30;68.20;;;;;;5015493;28;20496;-66
2022/07/24 09:35:40;;;;;;;9.93;9.23;;;32.50;68.80;;;;;;5015620;28;20409;-66
2022/07/24 09:38:11;;;;;;;11.07;10.17;;;32.30;68.20;;;;;;5015283;28;20949;-66
2022/07/24 09:40:40;;;;;;;11.33;10.57;;;32.20;69.00;;;;;;5015349;28;20413;-65
2022/07/24 09:43:19;;;;;;;11.93;11.13;;;31.50;69.10;;;;;;5015461;28;20417;-68
2022/07/24 09:46:08;;;;;;;11.40;10.60;;;31.00;70.90;;;;;;4997953;28;20453;-68
2022/07/24 09:48:36;;;;;;;10.80;10.00;;;30.20;71.60;;;;;;5014750;28;20821;-68
2022/07/24 09:51:10;;;;;;;10.97;10.07;;;29.70;72.90;;;;;;5015242;28;20799;-68
2022/07/24 09:53:37;;;;;;;11.53;10.70;;;29.60;73.70;;;;;;4997661;28;20484;-68
2022/07/24 09:56:07;;;;;;;11.13;10.33;;;29.50;73.80;;;;;;5015159;28;20425;-68
2022/07/24 09:58:36;;;;;;;10.33;9.63;;;29.60;73.90;;;;;;5014504;28;20475;-68
2022/07/24 10:01:02;;;;;;;10.50;9.80;;;29.70;73.30;;;;;;5015072;28;20476;-68
2022/07/24 10:03:31;;;;;;;10.43;9.73;;;29.70;73.40;;;;;;5015093;28;20457;-69
2022/07/24 10:06:03;;;;;;;11.40;10.50;;;30.20;73.60;;;;;;5014931;28;20769;-68
2022/07/24 10:08:30;;;;;;;11.47;10.67;;;31.60;71.70;;;;;;5014291;28;20438;-66
2022/07/24 10:10:56;;;;;;;10.90;10.10;;;32.60;69.00;;;;;;5014902;28;20426;-66
2022/07/24 10:13:24;;;;;;;10.63;9.80;;;33.30;67.70;;;;;;5014818;28;20672;-66
2022/07/24 10:16:07;;;;;;;11.07;10.27;;;34.50;64.70;;;;;;5014876;28;20418;-66
2022/07/24 10:18:55;;;;;;;9.97;9.30;;;35.20;63.10;;;;;;5013961;28;20438;-66
2022/07/24 10:21:26;;;;;;;11.57;10.43;;;36.50;60.10;;;;;;5014105;28;20433;-66
2022/07/24 10:24:03;;;;;;;10.17;9.47;;;38.10;56.40;;;;;;5014755;28;20913;-66
2022/07/24 10:26:48;;;;;;;11.37;10.57;;;39.60;54.30;;;;;;5014641;28;20426;-66
2022/07/24 10:29:15;;;;;;;9.17;8.57;;;39.50;51.10;;;;;;5013747;28;20502;-66
2022/07/24 10:31:48;;;;;;;9.07;8.47;;;39.50;51.40;;;;;;5014737;28;20513;-66
2022/07/24 10:34:36;;;;;;;9.80;9.00;;;38.70;51.90;;;;;;5014458;28;20548;-66
2022/07/24 10:37:42;;;;;;;9.23;8.63;;;39.00;51.90;;;;;;5014409;28;20410;-66
2022/07/24 10:40:36;;;;;;;9.33;8.70;;;39.30;51.40;;;;;;5013053;28;20448;-66
2022/07/24 10:43:04;;;;;;;8.90;8.40;;;40.60;49.40;;;;;;5014393;28;20516;-67
2022/07/24 10:45:34;;;;;;;9.47;8.80;;;41.20;47.70;;;;;;5014237;28;20460;-66
2022/07/24 10:48:23;;;;;;;9.20;8.60;;;41.80;46.20;;;;;;5014204;28;20417;-67
2022/07/24 10:51:05;;;;;;;10.07;9.37;;;42.00;45.20;;;;;;5004149;28;20445;-66
2022/07/24 10:53:37;;;;;;;8.90;8.13;;;41.50;44.60;;;;;;5014128;28;20492;-67
2022/07/24 10:56:25;;;;;;;9.70;9.10;;;41.90;44.10;;;;;;5014005;28;20414;-66
2022/07/24 10:59:11;;;;;;;9.03;8.53;;;41.90;43.50;;;;;;5013331;28;20477;-67
2022/07/24 11:01:48;;;;;;;9.03;8.13;;;41.90;43.20;;;;;;5014013;28;20418;-66
2022/07/24 11:04:22;;;;;;;9.00;8.50;;;42.70;42.20;;;;;;5013809;28;20443;-67
2022/07/24 11:07:10;;;;;;;9.53;8.93;;;43.60;40.90;;;;;;5013932;28;20931;-67
2022/07/24 11:09:56;;;;;;;9.17;8.67;;;44.40;38.20;;;;;;5013037;28;20434;-67
2022/07/24 11:12:33;;;;;;;9.30;8.70;;;45.10;38.50;;;;;;5013478;28;20460;-67
2022/07/24 11:17:48;;;;;;;10.80;10.20;;;43.50;39.50;;;;;;5013853;28;20513;-66
2022/07/24 11:20:21;;;;;;;10.77;10.07;;;42.40;39.40;;;;;;5012704;28;20520;-66
2022/07/24 11:22:52;;;;;;;10.57;9.63;;;40.60;40.90;;;;;;5013570;28;20266;-66
2022/07/24 11:25:24;;;;;;;10.73;10.03;;;39.00;42.60;;;;;;5013396;28;20461;-66
2022/07/24 11:27:58;;;;;;;10.80;10.20;;;37.80;44.00;;;;;;5013476;28;20458;-66
2022/07/24 11:30:27;;;;;;;10.43;9.73;;;38.80;43.90;;;;;;5012610;28;20540;-67
2022/07/24 11:32:53;;;;;;;10.57;9.60;;;39.40;43.30;;;;;;5013312;28;20450;-67
2022/07/24 11:35:31;;;;;;;10.83;10.13;;;39.70;43.00;;;;;;5013292;28;20414;-66
2022/07/24 11:37:59;;;;;;;11.20;10.50;;;39.80;43.00;;;;;;5013372;28;20417;-67
2022/07/24 11:40:25;;;;;;;11.00;10.37;;;41.60;41.10;;;;;;5012488;28;20445;-66
2022/07/24 11:42:56;;;;;;;9.67;9.13;;;42.50;40.30;;;;;;5013391;28;20414;-67
2022/07/24 11:45:21;;;;;;;9.93;9.33;;;42.70;39.00;;;;;;5013259;28;20171;-66
2022/07/24 11:47:47;;;;;;;10.23;9.53;;;44.20;38.50;;;;;;5012992;28;20416;-67
2022/07/24 11:50:12;;;;;;;9.00;8.40;;;44.70;37.10;;;;;;5012272;28;20222;-67
2022/07/24 11:52:40;;;;;;;9.00;8.40;;;45.10;36.70;;;;;;5012255;28;20198;-67
2022/07/24 11:55:11;;;;;;;8.97;8.47;;;45.60;36.30;;;;;;5013153;28;20229;-66
2022/07/24 11:57:40;;;;;;;10.13;9.43;;;46.60;34.60;;;;;;5012932;28;20545;-67
2022/07/24 12:00:15;;;;;;;10.30;9.80;;;46.90;34.10;;;;;;4994428;28;20437;-67
2022/07/24 12:02:48;;;;;;;10.47;9.87;;;47.60;33.20;;;;;;5013026;28;20797;-67
2022/07/24 12:05:41;;;;;;;10.17;9.67;;;47.30;32.90;;;;;;5012982;28;20425;-67
2022/07/24 12:08:26;;;;;;;9.77;9.27;;;45.60;33.00;;;;;;5012704;28;20418;-67
2022/07/24 12:10:56;;;;;;;10.77;10.07;;;46.90;33.00;;;;;;5012731;28;20421;-67
2022/07/24 12:13:21;;;;;;;10.40;9.60;;;47.70;32.50;;;;;;5012658;28;20676;-67
2022/07/24 12:15:47;;;;;;;10.33;9.83;;;47.70;31.90;;;;;;5012724;28;21071;-67
2022/07/24 12:18:13;;;;;;;8.67;8.17;;;47.30;32.30;;;;;;5011877;28;20228;-67
2022/07/24 12:20:41;;;;;;;10.57;9.87;;;47.20;32.10;;;;;;5012647;28;20171;-67
2022/07/24 12:23:15;;;;;;;9.20;8.70;;;45.50;32.80;;;;;;5012597;28;20445;-66
2022/07/24 12:25:42;;;;;;;10.30;9.63;;;42.60;34.40;;;;;;4994883;28;20418;-66
2022/07/24 12:28:09;;;;;;;9.77;9.17;;;41.40;35.60;;;;;;5012267;28;20418;-67
2022/07/24 12:30:40;;;;;;;9.40;8.80;;;42.00;35.40;;;;;;5012359;28;20945;-67
2022/07/24 12:33:18;;;;;;;9.77;9.07;;;43.60;34.60;;;;;;5012293;28;20979;-67
2022/07/24 12:35:54;;;;;;;10.00;9.40;;;44.60;32.90;;;;;;4994764;28;20972;-66